sensor_id;sensor_type;location;lat;lon;timestamp;P1;durP1;ratioP1;P2;durP2;ratioP2
57107;SDS011;42987;52.916;6.542;2022-12-10T00:01:45;74.73;;;53.87;;
57107;SDS011;42987;52.916;6.542;2022-12-10T00:04:13;77.03;;;52.53;;
57107;SDS011;42987;52.916;6.542;2022-12-10T00:06:39;81.47;;;54.33;;
57107;SDS011;42987;52.916;6.542;2022-12-10T00:09:07;81.93;;;55.20;;
57107;SDS011;42987;52.916;6.542;2022-12-10T00:11:36;79.07;;;53.00;;
57107;SDS011;42987;52.916;6.542;2022-12-10T00:14:03;78.13;;;53.33;;
57107;SDS011;42987;52.916;6.542;2022-12-10T00:16:29;88.33;;;54.63;;
57107;SDS011;42987;52.916;6.542;2022-12-10T00:19:01;77.23;;;52.70;;
57107;SDS011;42987;52.916;6.542;2022-12-10T00:21:32;78.35;;;53.60;;
57107;SDS011;42987;52.916;6.542;2022-12-10T00:23:59;73.13;;;51.80;;
57107;SDS011;42987;52.916;6.542;2022-12-10T00:26:30;77.33;;;51.13;;
57107;SDS011;42987;52.916;6.542;2022-12-10T00:28:59;81.30;;;54.73;;
57107;SDS011;42987;52.916;6.542;2022-12-10T00:31:35;81.87;;;54.17;;
57107;SDS011;42987;52.916;6.542;2022-12-10T00:34:06;89.90;;;57.73;;
57107;SDS011;42987;52.916;6.542;2022-12-10T00:36:35;83.00;;;54.23;;
57107;SDS011;42987;52.916;6.542;2022-12-10T00:39:04;84.72;;;55.45;;
57107;SDS011;42987;52.916;6.542;2022-12-10T00:41:30;79.90;;;52.80;;
57107;SDS011;42987;52.916;6.542;2022-12-10T00:43:57;87.97;;;55.83;;
57107;SDS011;42987;52.916;6.542;2022-12-10T00:46:23;92.53;;;57.77;;
57107;SDS011;42987;52.916;6.542;2022-12-10T00:48:48;97.10;;;60.60;;
57107;SDS011;42987;52.916;6.542;2022-12-10T00:51:16;88.20;;;58.50;;
57107;SDS011;42987;52.916;6.542;2022-12-10T00:53:43;86.63;;;55.67;;
57107;SDS011;42987;52.916;6.542;2022-12-10T00:56:10;93.17;;;57.87;;
57107;SDS011;42987;52.916;6.542;2022-12-10T00:58:37;87.53;;;56.63;;
57107;SDS011;42987;52.916;6.542;2022-12-10T01:01:08;87.40;;;58.20;;
57107;SDS011;42987;52.916;6.542;2022-12-10T01:03:49;94.17;;;59.20;;
57107;SDS011;42987;52.916;6.542;2022-12-10T01:06:18;92.20;;;60.75;;
57107;SDS011;42987;52.916;6.542;2022-12-10T01:08:50;90.63;;;59.07;;
57107;SDS011;42987;52.916;6.542;2022-12-10T01:11:18;92.83;;;60.07;;
57107;SDS011;42987;52.916;6.542;2022-12-10T01:13:44;93.40;;;60.23;;
57107;SDS011;42987;52.916;6.542;2022-12-10T01:16:12;91.67;;;58.70;;
57107;SDS011;42987;52.916;6.542;2022-12-10T01:18:39;98.83;;;60.33;;
57107;SDS011;42987;52.916;6.542;2022-12-10T01:21:07;96.80;;;63.33;;
57107;SDS011;42987;52.916;6.542;2022-12-10T01:23:41;96.83;;;62.20;;
57107;SDS011;42987;52.916;6.542;2022-12-10T01:26:10;90.07;;;59.43;;
57107;SDS011;42987;52.916;6.542;2022-12-10T01:28:41;96.93;;;62.58;;
57107;SDS011;42987;52.916;6.542;2022-12-10T01:31:09;101.00;;;63.88;;
57107;SDS011;42987;52.916;6.542;2022-12-10T01:33:37;99.33;;;63.10;;
57107;SDS011;42987;52.916;6.542;2022-12-10T01:36:05;100.67;;;63.10;;
57107;SDS011;42987;52.916;6.542;2022-12-10T01:38:51;102.77;;;66.23;;
57107;SDS011;42987;52.916;6.542;2022-12-10T01:41:19;104.33;;;65.40;;
57107;SDS011;42987;52.916;6.542;2022-12-10T01:43:52;107.87;;;66.40;;
57107;SDS011;42987;52.916;6.542;2022-12-10T01:46:18;106.00;;;65.60;;
57107;SDS011;42987;52.916;6.542;2022-12-10T01:48:45;101.43;;;64.17;;
57107;SDS011;42987;52.916;6.542;2022-12-10T01:51:12;103.70;;;63.20;;
57107;SDS011;42987;52.916;6.542;2022-12-10T01:53:39;105.70;;;67.67;;
57107;SDS011;42987;52.916;6.542;2022-12-10T01:56:06;102.83;;;66.73;;
57107;SDS011;42987;52.916;6.542;2022-12-10T01:58:33;103.43;;;65.13;;
57107;SDS011;42987;52.916;6.542;2022-12-10T02:06:35;103.93;;;64.70;;
57107;SDS011;42987;52.916;6.542;2022-12-10T02:09:16;104.20;;;66.47;;
57107;SDS011;42987;52.916;6.542;2022-12-10T02:14:54;110.80;;;68.20;;
57107;SDS011;42987;52.916;6.542;2022-12-10T02:22:42;120.67;;;70.93;;
57107;SDS011;42987;52.916;6.542;2022-12-10T02:25:15;110.83;;;68.90;;
57107;SDS011;42987;52.916;6.542;2022-12-10T02:27:47;103.77;;;65.47;;
57107;SDS011;42987;52.916;6.542;2022-12-10T02:30:30;105.20;;;67.50;;
57107;SDS011;42987;52.916;6.542;2022-12-10T02:32:57;113.63;;;68.43;;
57107;SDS011;42987;52.916;6.542;2022-12-10T02:35:26;110.33;;;68.13;;
57107;SDS011;42987;52.916;6.542;2022-12-10T02:38:04;116.20;;;69.43;;
57107;SDS011;42987;52.916;6.542;2022-12-10T02:40:43;117.90;;;71.97;;
57107;SDS011;42987;52.916;6.542;2022-12-10T02:43:12;105.45;;;67.03;;
57107;SDS011;42987;52.916;6.542;2022-12-10T02:45:39;119.43;;;68.30;;
57107;SDS011;42987;52.916;6.542;2022-12-10T02:48:06;114.97;;;69.80;;
57107;SDS011;42987;52.916;6.542;2022-12-10T02:50:32;116.13;;;69.63;;
57107;SDS011;42987;52.916;6.542;2022-12-10T02:52:59;122.80;;;74.77;;
57107;SDS011;42987;52.916;6.542;2022-12-10T02:55:24;114.93;;;71.33;;
57107;SDS011;42987;52.916;6.542;2022-12-10T03:00:22;120.07;;;72.47;;
57107;SDS011;42987;52.916;6.542;2022-12-10T03:07:56;117.53;;;70.57;;
57107;SDS011;42987;52.916;6.542;2022-12-10T03:10:41;118.40;;;71.50;;
57107;SDS011;42987;52.916;6.542;2022-12-10T03:13:35;115.63;;;71.57;;
57107;SDS011;42987;52.916;6.542;2022-12-10T03:16:23;124.67;;;74.47;;
57107;SDS011;42987;52.916;6.542;2022-12-10T03:18:51;128.40;;;74.13;;
57107;SDS011;42987;52.916;6.542;2022-12-10T03:21:21;112.63;;;71.57;;
57107;SDS011;42987;52.916;6.542;2022-12-10T03:23:49;126.37;;;72.40;;
57107;SDS011;42987;52.916;6.542;2022-12-10T03:26:16;125.13;;;73.33;;
57107;SDS011;42987;52.916;6.542;2022-12-10T03:28:48;121.30;;;72.73;;
57107;SDS011;42987;52.916;6.542;2022-12-10T03:31:16;118.77;;;71.67;;
57107;SDS011;42987;52.916;6.542;2022-12-10T03:33:44;117.60;;;69.40;;
57107;SDS011;42987;52.916;6.542;2022-12-10T03:36:12;114.57;;;68.70;;
57107;SDS011;42987;52.916;6.542;2022-12-10T03:38:39;140.57;;;77.17;;
57107;SDS011;42987;52.916;6.542;2022-12-10T03:41:06;126.80;;;72.90;;
57107;SDS011;42987;52.916;6.542;2022-12-10T03:43:32;125.10;;;71.80;;
57107;SDS011;42987;52.916;6.542;2022-12-10T03:45:57;121.50;;;71.63;;
57107;SDS011;42987;52.916;6.542;2022-12-10T03:48:24;137.63;;;75.77;;
57107;SDS011;42987;52.916;6.542;2022-12-10T03:50:49;106.30;;;66.77;;
57107;SDS011;42987;52.916;6.542;2022-12-10T03:53:15;130.90;;;73.83;;
57107;SDS011;42987;52.916;6.542;2022-12-10T03:55:41;121.57;;;71.00;;
57107;SDS011;42987;52.916;6.542;2022-12-10T03:58:07;131.83;;;75.80;;
57107;SDS011;42987;52.916;6.542;2022-12-10T04:00:32;127.37;;;71.67;;
57107;SDS011;42987;52.916;6.542;2022-12-10T04:02:58;124.30;;;71.97;;
57107;SDS011;42987;52.916;6.542;2022-12-10T04:05:24;120.53;;;72.23;;
57107;SDS011;42987;52.916;6.542;2022-12-10T04:07:50;120.80;;;71.63;;
57107;SDS011;42987;52.916;6.542;2022-12-10T04:10:16;129.00;;;74.93;;
57107;SDS011;42987;52.916;6.542;2022-12-10T04:12:42;119.83;;;71.60;;
57107;SDS011;42987;52.916;6.542;2022-12-10T04:15:08;136.90;;;74.97;;
57107;SDS011;42987;52.916;6.542;2022-12-10T04:17:55;130.10;;;73.63;;
57107;SDS011;42987;52.916;6.542;2022-12-10T04:20:21;130.77;;;76.03;;
57107;SDS011;42987;52.916;6.542;2022-12-10T04:23:05;131.30;;;76.00;;
57107;SDS011;42987;52.916;6.542;2022-12-10T04:25:51;136.20;;;76.53;;
57107;SDS011;42987;52.916;6.542;2022-12-10T04:28:40;112.33;;;69.20;;
57107;SDS011;42987;52.916;6.542;2022-12-10T04:31:06;119.53;;;71.27;;
57107;SDS011;42987;52.916;6.542;2022-12-10T04:33:32;130.77;;;74.70;;
57107;SDS011;42987;52.916;6.542;2022-12-10T04:35:57;123.20;;;71.33;;
57107;SDS011;42987;52.916;6.542;2022-12-10T04:38:23;129.60;;;74.17;;
57107;SDS011;42987;52.916;6.542;2022-12-10T04:40:49;132.43;;;75.40;;
57107;SDS011;42987;52.916;6.542;2022-12-10T04:43:15;119.43;;;71.90;;
57107;SDS011;42987;52.916;6.542;2022-12-10T04:45:44;140.60;;;76.30;;
57107;SDS011;42987;52.916;6.542;2022-12-10T04:48:09;125.07;;;72.10;;
57107;SDS011;42987;52.916;6.542;2022-12-10T04:50:39;122.63;;;73.53;;
57107;SDS011;42987;52.916;6.542;2022-12-10T04:53:05;140.97;;;77.67;;
57107;SDS011;42987;52.916;6.542;2022-12-10T04:55:30;119.63;;;72.20;;
57107;SDS011;42987;52.916;6.542;2022-12-10T04:57:56;136.13;;;77.60;;
57107;SDS011;42987;52.916;6.542;2022-12-10T05:00:22;117.53;;;68.73;;
57107;SDS011;42987;52.916;6.542;2022-12-10T05:02:48;122.30;;;72.13;;
57107;SDS011;42987;52.916;6.542;2022-12-10T05:05:14;124.03;;;72.60;;
57107;SDS011;42987;52.916;6.542;2022-12-10T05:07:40;130.47;;;73.27;;
57107;SDS011;42987;52.916;6.542;2022-12-10T05:10:06;117.33;;;72.27;;
57107;SDS011;42987;52.916;6.542;2022-12-10T05:12:32;120.10;;;71.37;;
57107;SDS011;42987;52.916;6.542;2022-12-10T05:14:57;126.23;;;71.23;;
57107;SDS011;42987;52.916;6.542;2022-12-10T05:17:24;122.37;;;71.40;;
57107;SDS011;42987;52.916;6.542;2022-12-10T05:19:49;135.10;;;74.97;;
57107;SDS011;42987;52.916;6.542;2022-12-10T05:22:15;114.73;;;69.17;;
57107;SDS011;42987;52.916;6.542;2022-12-10T05:25:00;115.33;;;70.03;;
57107;SDS011;42987;52.916;6.542;2022-12-10T05:27:29;121.67;;;71.90;;
57107;SDS011;42987;52.916;6.542;2022-12-10T05:29:56;133.63;;;75.50;;
57107;SDS011;42987;52.916;6.542;2022-12-10T05:32:22;130.17;;;72.97;;
57107;SDS011;42987;52.916;6.542;2022-12-10T05:34:48;116.23;;;69.40;;
57107;SDS011;42987;52.916;6.542;2022-12-10T05:37:14;127.67;;;73.80;;
57107;SDS011;42987;52.916;6.542;2022-12-10T05:39:39;127.37;;;73.17;;
57107;SDS011;42987;52.916;6.542;2022-12-10T05:42:05;132.63;;;76.50;;
57107;SDS011;42987;52.916;6.542;2022-12-10T05:44:31;122.13;;;74.03;;
57107;SDS011;42987;52.916;6.542;2022-12-10T05:46:57;125.07;;;73.50;;
57107;SDS011;42987;52.916;6.542;2022-12-10T05:49:22;137.53;;;77.20;;
57107;SDS011;42987;52.916;6.542;2022-12-10T05:51:48;151.90;;;79.30;;
57107;SDS011;42987;52.916;6.542;2022-12-10T05:54:17;128.40;;;74.77;;
57107;SDS011;42987;52.916;6.542;2022-12-10T05:56:43;120.00;;;71.87;;
57107;SDS011;42987;52.916;6.542;2022-12-10T05:59:09;135.97;;;76.30;;
57107;SDS011;42987;52.916;6.542;2022-12-10T06:01:34;129.37;;;76.40;;
57107;SDS011;42987;52.916;6.542;2022-12-10T06:04:01;165.20;;;84.53;;
57107;SDS011;42987;52.916;6.542;2022-12-10T06:06:29;165.47;;;84.43;;
57107;SDS011;42987;52.916;6.542;2022-12-10T06:08:57;168.00;;;88.07;;
57107;SDS011;42987;52.916;6.542;2022-12-10T06:11:23;177.30;;;87.50;;
57107;SDS011;42987;52.916;6.542;2022-12-10T06:13:49;180.47;;;90.50;;
57107;SDS011;42987;52.916;6.542;2022-12-10T06:16:15;203.10;;;94.27;;
57107;SDS011;42987;52.916;6.542;2022-12-10T06:18:41;178.70;;;89.13;;
57107;SDS011;42987;52.916;6.542;2022-12-10T06:21:08;194.20;;;94.17;;
57107;SDS011;42987;52.916;6.542;2022-12-10T06:23:36;184.80;;;90.37;;
57107;SDS011;42987;52.916;6.542;2022-12-10T06:26:06;192.93;;;93.07;;
57107;SDS011;42987;52.916;6.542;2022-12-10T06:28:39;190.63;;;91.43;;
57107;SDS011;42987;52.916;6.542;2022-12-10T06:31:06;193.77;;;89.70;;
57107;SDS011;42987;52.916;6.542;2022-12-10T06:33:32;185.77;;;90.90;;
57107;SDS011;42987;52.916;6.542;2022-12-10T06:35:58;173.57;;;88.77;;
57107;SDS011;42987;52.916;6.542;2022-12-10T06:38:24;192.73;;;94.73;;
57107;SDS011;42987;52.916;6.542;2022-12-10T06:40:50;183.37;;;91.87;;
57107;SDS011;42987;52.916;6.542;2022-12-10T06:43:16;177.20;;;87.87;;
57107;SDS011;42987;52.916;6.542;2022-12-10T06:45:42;206.67;;;98.67;;
57107;SDS011;42987;52.916;6.542;2022-12-10T06:48:08;180.13;;;87.37;;
57107;SDS011;42987;52.916;6.542;2022-12-10T06:50:34;213.67;;;97.73;;
57107;SDS011;42987;52.916;6.542;2022-12-10T06:53:00;194.77;;;95.87;;
57107;SDS011;42987;52.916;6.542;2022-12-10T06:55:26;199.07;;;95.93;;
57107;SDS011;42987;52.916;6.542;2022-12-10T06:57:52;191.00;;;93.07;;
57107;SDS011;42987;52.916;6.542;2022-12-10T07:00:18;190.00;;;94.33;;
57107;SDS011;42987;52.916;6.542;2022-12-10T07:02:44;212.00;;;98.60;;
57107;SDS011;42987;52.916;6.542;2022-12-10T07:05:10;219.73;;;101.23;;
57107;SDS011;42987;52.916;6.542;2022-12-10T07:07:36;215.10;;;99.27;;
57107;SDS011;42987;52.916;6.542;2022-12-10T07:10:02;199.80;;;96.17;;
57107;SDS011;42987;52.916;6.542;2022-12-10T07:12:29;198.97;;;97.30;;
57107;SDS011;42987;52.916;6.542;2022-12-10T07:14:55;184.30;;;93.33;;
57107;SDS011;42987;52.916;6.542;2022-12-10T07:17:21;193.77;;;96.77;;
57107;SDS011;42987;52.916;6.542;2022-12-10T07:19:46;180.70;;;90.83;;
57107;SDS011;42987;52.916;6.542;2022-12-10T07:22:12;186.67;;;94.37;;
57107;SDS011;42987;52.916;6.542;2022-12-10T07:24:38;170.57;;;86.23;;
57107;SDS011;42987;52.916;6.542;2022-12-10T07:27:04;188.20;;;93.60;;
57107;SDS011;42987;52.916;6.542;2022-12-10T07:29:34;170.23;;;89.90;;
57107;SDS011;42987;52.916;6.542;2022-12-10T07:32:00;188.07;;;92.87;;
57107;SDS011;42987;52.916;6.542;2022-12-10T07:34:26;177.63;;;90.50;;
57107;SDS011;42987;52.916;6.542;2022-12-10T07:36:52;191.70;;;94.40;;
57107;SDS011;42987;52.916;6.542;2022-12-10T07:39:17;174.90;;;89.17;;
57107;SDS011;42987;52.916;6.542;2022-12-10T07:41:46;185.17;;;92.83;;
57107;SDS011;42987;52.916;6.542;2022-12-10T07:44:15;172.17;;;88.13;;
57107;SDS011;42987;52.916;6.542;2022-12-10T07:46:41;162.27;;;87.93;;
57107;SDS011;42987;52.916;6.542;2022-12-10T07:49:07;172.67;;;87.90;;
57107;SDS011;42987;52.916;6.542;2022-12-10T07:51:33;174.00;;;88.00;;
57107;SDS011;42987;52.916;6.542;2022-12-10T07:53:59;168.87;;;88.83;;
57107;SDS011;42987;52.916;6.542;2022-12-10T07:56:24;163.67;;;85.97;;
57107;SDS011;42987;52.916;6.542;2022-12-10T07:58:51;158.43;;;83.93;;
57107;SDS011;42987;52.916;6.542;2022-12-10T08:01:22;154.47;;;82.20;;
57107;SDS011;42987;52.916;6.542;2022-12-10T08:03:49;151.70;;;83.57;;
57107;SDS011;42987;52.916;6.542;2022-12-10T08:06:17;156.27;;;83.40;;
57107;SDS011;42987;52.916;6.542;2022-12-10T08:08:44;151.90;;;81.17;;
57107;SDS011;42987;52.916;6.542;2022-12-10T08:11:11;161.20;;;86.73;;
57107;SDS011;42987;52.916;6.542;2022-12-10T08:13:38;165.73;;;86.30;;
57107;SDS011;42987;52.916;6.542;2022-12-10T08:16:05;158.07;;;86.57;;
57107;SDS011;42987;52.916;6.542;2022-12-10T08:18:43;151.00;;;84.03;;
57107;SDS011;42987;52.916;6.542;2022-12-10T08:21:14;162.30;;;87.00;;
57107;SDS011;42987;52.916;6.542;2022-12-10T08:23:41;143.60;;;80.73;;
57107;SDS011;42987;52.916;6.542;2022-12-10T08:26:13;149.83;;;81.50;;
57107;SDS011;42987;52.916;6.542;2022-12-10T08:28:41;157.77;;;85.60;;
57107;SDS011;42987;52.916;6.542;2022-12-10T08:31:10;144.63;;;80.47;;
57107;SDS011;42987;52.916;6.542;2022-12-10T08:33:37;153.00;;;84.33;;
57107;SDS011;42987;52.916;6.542;2022-12-10T08:36:04;150.00;;;84.37;;
57107;SDS011;42987;52.916;6.542;2022-12-10T08:38:31;152.77;;;82.37;;
57107;SDS011;42987;52.916;6.542;2022-12-10T08:40:57;158.23;;;85.17;;
57107;SDS011;42987;52.916;6.542;2022-12-10T08:43:26;134.37;;;78.43;;
57107;SDS011;42987;52.916;6.542;2022-12-10T08:45:52;154.33;;;83.53;;
57107;SDS011;42987;52.916;6.542;2022-12-10T08:48:17;151.03;;;83.43;;
57107;SDS011;42987;52.916;6.542;2022-12-10T08:50:43;160.73;;;87.60;;
57107;SDS011;42987;52.916;6.542;2022-12-10T08:53:10;175.20;;;91.73;;
57107;SDS011;42987;52.916;6.542;2022-12-10T08:55:38;156.43;;;83.10;;
57107;SDS011;42987;52.916;6.542;2022-12-10T08:58:04;167.67;;;88.47;;
57107;SDS011;42987;52.916;6.542;2022-12-10T09:00:30;161.37;;;86.17;;
57107;SDS011;42987;52.916;6.542;2022-12-10T09:02:56;180.00;;;90.93;;
57107;SDS011;42987;52.916;6.542;2022-12-10T09:05:22;158.33;;;84.57;;
57107;SDS011;42987;52.916;6.542;2022-12-10T09:07:48;166.67;;;85.50;;
57107;SDS011;42987;52.916;6.542;2022-12-10T09:10:14;164.50;;;86.50;;
57107;SDS011;42987;52.916;6.542;2022-12-10T09:12:41;157.63;;;85.03;;
57107;SDS011;42987;52.916;6.542;2022-12-10T09:15:08;160.10;;;87.70;;
57107;SDS011;42987;52.916;6.542;2022-12-10T09:17:35;172.83;;;89.93;;
57107;SDS011;42987;52.916;6.542;2022-12-10T09:20:03;157.60;;;84.57;;
57107;SDS011;42987;52.916;6.542;2022-12-10T09:22:30;188.23;;;93.57;;
57107;SDS011;42987;52.916;6.542;2022-12-10T09:24:56;156.60;;;82.20;;
57107;SDS011;42987;52.916;6.542;2022-12-10T09:27:22;172.77;;;86.97;;
57107;SDS011;42987;52.916;6.542;2022-12-10T09:29:48;169.43;;;84.77;;
57107;SDS011;42987;52.916;6.542;2022-12-10T09:32:13;163.30;;;85.07;;
57107;SDS011;42987;52.916;6.542;2022-12-10T09:34:39;162.43;;;84.70;;
57107;SDS011;42987;52.916;6.542;2022-12-10T09:37:05;162.47;;;84.30;;
57107;SDS011;42987;52.916;6.542;2022-12-10T09:39:30;161.70;;;82.97;;
57107;SDS011;42987;52.916;6.542;2022-12-10T09:44:33;165.73;;;86.33;;
57107;SDS011;42987;52.916;6.542;2022-12-10T09:47:13;167.67;;;86.47;;
57107;SDS011;42987;52.916;6.542;2022-12-10T09:52:34;180.73;;;89.25;;
57107;SDS011;42987;52.916;6.542;2022-12-10T09:55:08;170.60;;;86.70;;
57107;SDS011;42987;52.916;6.542;2022-12-10T09:57:38;179.47;;;89.63;;
57107;SDS011;42987;52.916;6.542;2022-12-10T10:00:18;177.47;;;87.77;;
57107;SDS011;42987;52.916;6.542;2022-12-10T10:02:47;179.37;;;91.83;;
57107;SDS011;42987;52.916;6.542;2022-12-10T10:05:31;164.30;;;84.37;;
57107;SDS011;42987;52.916;6.542;2022-12-10T10:08:01;161.20;;;83.63;;
57107;SDS011;42987;52.916;6.542;2022-12-10T10:10:31;186.73;;;88.73;;
57107;SDS011;42987;52.916;6.542;2022-12-10T10:13:09;187.33;;;85.87;;
57107;SDS011;42987;52.916;6.542;2022-12-10T10:15:40;153.67;;;79.50;;
57107;SDS011;42987;52.916;6.542;2022-12-10T10:21:03;141.40;;;76.63;;
57107;SDS011;42987;52.916;6.542;2022-12-10T10:23:35;199.47;;;91.20;;
57107;SDS011;42987;52.916;6.542;2022-12-10T10:26:01;218.07;;;100.97;;
57107;SDS011;42987;52.916;6.542;2022-12-10T10:28:29;188.87;;;96.43;;
57107;SDS011;42987;52.916;6.542;2022-12-10T10:30:55;211.10;;;95.47;;
57107;SDS011;42987;52.916;6.542;2022-12-10T10:33:21;180.47;;;90.90;;
57107;SDS011;42987;52.916;6.542;2022-12-10T10:38:18;201.27;;;91.50;;
57107;SDS011;42987;52.916;6.542;2022-12-10T10:40:52;197.57;;;90.83;;
57107;SDS011;42987;52.916;6.542;2022-12-10T10:43:28;192.80;;;89.30;;
57107;SDS011;42987;52.916;6.542;2022-12-10T10:48:27;186.80;;;90.90;;
57107;SDS011;42987;52.916;6.542;2022-12-10T11:04:16;199.70;;;94.33;;
57107;SDS011;42987;52.916;6.542;2022-12-10T11:06:54;178.73;;;91.13;;
57107;SDS011;42987;52.916;6.542;2022-12-10T11:09:27;183.23;;;90.33;;
57107;SDS011;42987;52.916;6.542;2022-12-10T11:11:59;162.88;;;82.60;;
57107;SDS011;42987;52.916;6.542;2022-12-10T11:14:30;180.27;;;88.73;;
57107;SDS011;42987;52.916;6.542;2022-12-10T11:17:06;169.83;;;82.97;;
57107;SDS011;42987;52.916;6.542;2022-12-10T11:19:44;159.93;;;81.00;;
57107;SDS011;42987;52.916;6.542;2022-12-10T11:22:32;130.13;;;72.37;;
57107;SDS011;42987;52.916;6.542;2022-12-10T11:24:59;130.05;;;70.80;;
57107;SDS011;42987;52.916;6.542;2022-12-10T11:30:17;155.07;;;78.07;;
57107;SDS011;42987;52.916;6.542;2022-12-10T11:38:58;144.73;;;74.77;;
57107;SDS011;42987;52.916;6.542;2022-12-10T11:41:52;132.02;;;67.35;;
57107;SDS011;42987;52.916;6.542;2022-12-10T11:50:13;130.93;;;70.40;;
57107;SDS011;42987;52.916;6.542;2022-12-10T12:04:16;88.07;;;54.73;;
57107;SDS011;42987;52.916;6.542;2022-12-10T12:07:20;86.72;;;52.00;;
57107;SDS011;42987;52.916;6.542;2022-12-10T12:12:42;103.03;;;58.97;;
57107;SDS011;42987;52.916;6.542;2022-12-10T12:15:40;92.20;;;55.07;;
57107;SDS011;42987;52.916;6.542;2022-12-10T12:18:19;94.73;;;56.23;;
57107;SDS011;42987;52.916;6.542;2022-12-10T12:20:49;100.57;;;57.53;;
57107;SDS011;42987;52.916;6.542;2022-12-10T12:26:12;109.20;;;59.40;;
57107;SDS011;42987;52.916;6.542;2022-12-10T12:31:41;106.07;;;58.93;;
57107;SDS011;42987;52.916;6.542;2022-12-10T12:34:21;111.20;;;61.10;;
57107;SDS011;42987;52.916;6.542;2022-12-10T12:36:52;110.15;;;61.67;;
57107;SDS011;42987;52.916;6.542;2022-12-10T12:39:21;115.77;;;61.73;;
57107;SDS011;42987;52.916;6.542;2022-12-10T12:42:12;110.03;;;61.47;;
57107;SDS011;42987;52.916;6.542;2022-12-10T12:50:16;143.87;;;71.57;;
57107;SDS011;42987;52.916;6.542;2022-12-10T12:52:58;142.07;;;72.32;;
57107;SDS011;42987;52.916;6.542;2022-12-10T12:55:38;141.67;;;71.33;;
57107;SDS011;42987;52.916;6.542;2022-12-10T13:00:43;143.07;;;67.83;;
57107;SDS011;42987;52.916;6.542;2022-12-10T13:06:19;145.17;;;70.70;;
57107;SDS011;42987;52.916;6.542;2022-12-10T13:11:37;174.93;;;83.20;;
57107;SDS011;42987;52.916;6.542;2022-12-10T13:27:18;205.80;;;91.37;;
57107;SDS011;42987;52.916;6.542;2022-12-10T13:30:01;209.97;;;87.13;;
57107;SDS011;42987;52.916;6.542;2022-12-10T13:42:37;227.70;;;90.30;;
57107;SDS011;42987;52.916;6.542;2022-12-10T13:47:51;247.77;;;91.87;;
57107;SDS011;42987;52.916;6.542;2022-12-10T14:06:59;235.27;;;91.63;;
57107;SDS011;42987;52.916;6.542;2022-12-10T14:09:27;250.93;;;94.43;;
57107;SDS011;42987;52.916;6.542;2022-12-10T14:12:03;189.70;;;82.80;;
57107;SDS011;42987;52.916;6.542;2022-12-10T14:14:38;231.23;;;90.07;;
57107;SDS011;42987;52.916;6.542;2022-12-10T14:17:23;188.00;;;82.90;;
57107;SDS011;42987;52.916;6.542;2022-12-10T14:28:20;248.67;;;94.07;;
57107;SDS011;42987;52.916;6.542;2022-12-10T14:34:39;243.67;;;92.67;;
57107;SDS011;42987;52.916;6.542;2022-12-10T14:37:24;219.13;;;86.60;;
57107;SDS011;42987;52.916;6.542;2022-12-10T14:47:41;242.40;;;90.10;;
57107;SDS011;42987;52.916;6.542;2022-12-10T14:53:31;205.03;;;83.23;;
57107;SDS011;42987;52.916;6.542;2022-12-10T14:56:43;189.20;;;85.17;;
57107;SDS011;42987;52.916;6.542;2022-12-10T15:03:22;295.85;;;97.40;;
57107;SDS011;42987;52.916;6.542;2022-12-10T15:06:23;246.13;;;93.10;;
57107;SDS011;42987;52.916;6.542;2022-12-10T15:08:50;258.60;;;92.37;;
57107;SDS011;42987;52.916;6.542;2022-12-10T15:11:35;242.43;;;89.93;;
57107;SDS011;42987;52.916;6.542;2022-12-10T15:15:26;211.67;;;88.23;;
57107;SDS011;42987;52.916;6.542;2022-12-10T15:18:12;188.93;;;80.97;;
57107;SDS011;42987;52.916;6.542;2022-12-10T15:20:50;188.60;;;90.97;;
57107;SDS011;42987;52.916;6.542;2022-12-10T15:28:26;216.40;;;86.10;;
57107;SDS011;42987;52.916;6.542;2022-12-10T15:30:54;163.30;;;72.60;;
57107;SDS011;42987;52.916;6.542;2022-12-10T15:33:33;164.07;;;72.90;;
57107;SDS011;42987;52.916;6.542;2022-12-10T15:36:04;233.97;;;85.00;;
57107;SDS011;42987;52.916;6.542;2022-12-10T15:38:30;157.90;;;68.53;;
57107;SDS011;42987;52.916;6.542;2022-12-10T15:41:20;175.53;;;72.17;;
57107;SDS011;42987;52.916;6.542;2022-12-10T15:44:17;128.20;;;63.13;;
57107;SDS011;42987;52.916;6.542;2022-12-10T15:46:50;197.60;;;78.40;;
57107;SDS011;42987;52.916;6.542;2022-12-10T15:49:22;130.67;;;63.70;;
57107;SDS011;42987;52.916;6.542;2022-12-10T15:51:48;145.67;;;67.57;;
57107;SDS011;42987;52.916;6.542;2022-12-10T15:57:37;160.30;;;68.77;;
57107;SDS011;42987;52.916;6.542;2022-12-10T15:59:57;183.93;;;71.87;;
57107;SDS011;42987;52.916;6.542;2022-12-10T16:02:46;142.20;;;66.83;;
57107;SDS011;42987;52.916;6.542;2022-12-10T16:05:13;151.53;;;68.17;;
57107;SDS011;42987;52.916;6.542;2022-12-10T16:07:44;157.00;;;69.73;;
57107;SDS011;42987;52.916;6.542;2022-12-10T16:10:14;241.73;;;82.63;;
57107;SDS011;42987;52.916;6.542;2022-12-10T16:12:42;144.37;;;67.57;;
57107;SDS011;42987;52.916;6.542;2022-12-10T16:15:11;201.50;;;80.57;;
57107;SDS011;42987;52.916;6.542;2022-12-10T16:17:43;215.80;;;81.20;;
57107;SDS011;42987;52.916;6.542;2022-12-10T16:22:55;227.23;;;77.70;;
57107;SDS011;42987;52.916;6.542;2022-12-10T16:25:23;282.40;;;80.73;;
57107;SDS011;42987;52.916;6.542;2022-12-10T16:27:51;163.83;;;69.00;;
57107;SDS011;42987;52.916;6.542;2022-12-10T16:30:18;165.97;;;71.27;;
57107;SDS011;42987;52.916;6.542;2022-12-10T16:32:45;177.27;;;70.57;;
57107;SDS011;42987;52.916;6.542;2022-12-10T16:35:14;160.02;;;65.55;;
57107;SDS011;42987;52.916;6.542;2022-12-10T16:37:42;142.03;;;64.00;;
57107;SDS011;42987;52.916;6.542;2022-12-10T16:40:11;152.43;;;64.93;;
57107;SDS011;42987;52.916;6.542;2022-12-10T16:42:41;122.77;;;58.83;;
57107;SDS011;42987;52.916;6.542;2022-12-10T16:45:27;137.63;;;64.80;;
57107;SDS011;42987;52.916;6.542;2022-12-10T16:47:56;126.20;;;59.97;;
57107;SDS011;42987;52.916;6.542;2022-12-10T16:50:22;238.67;;;82.50;;
57107;SDS011;42987;52.916;6.542;2022-12-10T16:52:48;258.77;;;84.57;;
57107;SDS011;42987;52.916;6.542;2022-12-10T16:55:17;161.90;;;71.13;;
57107;SDS011;42987;52.916;6.542;2022-12-10T16:57:45;160.13;;;69.53;;
57107;SDS011;42987;52.916;6.542;2022-12-10T17:00:15;164.33;;;69.93;;
57107;SDS011;42987;52.916;6.542;2022-12-10T17:02:47;260.47;;;82.17;;
57107;SDS011;42987;52.916;6.542;2022-12-10T17:07:47;169.27;;;65.67;;
57107;SDS011;42987;52.916;6.542;2022-12-10T17:13:25;136.50;;;59.10;;
57107;SDS011;42987;52.916;6.542;2022-12-10T17:27:36;196.70;;;71.97;;
57107;SDS011;42987;52.916;6.542;2022-12-10T17:45:30;283.67;;;77.23;;
57107;SDS011;42987;52.916;6.542;2022-12-10T17:48:15;225.60;;;72.80;;
57107;SDS011;42987;52.916;6.542;2022-12-10T18:08:34;198.70;;;69.33;;
57107;SDS011;42987;52.916;6.542;2022-12-10T18:11:48;282.07;;;80.43;;
57107;SDS011;42987;52.916;6.542;2022-12-10T18:18:25;211.47;;;71.03;;
57107;SDS011;42987;52.916;6.542;2022-12-10T18:24:42;456.10;;;94.83;;
57107;SDS011;42987;52.916;6.542;2022-12-10T18:38:27;187.73;;;67.07;;